createdAt,value
2022-10-04T00:00:47.644Z,58.67
2022-10-04T00:03:19.819Z,58.78
2022-10-04T00:05:49.178Z,58.64
2022-10-04T00:08:25.479Z,58.81
2022-10-04T00:11:02.817Z,58.74
2022-10-04T00:13:30.330Z,58.46
2022-10-04T00:15:57.786Z,58.55
2022-10-04T00:18:30.099Z,58.53
2022-10-04T00:21:02.707Z,58.54
2022-10-04T00:23:42.096Z,58.70
2022-10-04T00:26:14.210Z,58.49
2022-10-04T00:28:45.487Z,58.37
2022-10-04T00:31:18.113Z,58.47
2022-10-04T00:33:46.060Z,58.29
2022-10-04T00:36:41.666Z,58.50
2022-10-04T00:39:18.413Z,58.46
2022-10-04T00:41:58.441Z,58.23
2022-10-04T00:44:29.357Z,58.29
2022-10-04T00:46:56.904Z,58.45
2022-10-04T00:49:25.324Z,58.38
2022-10-04T00:51:54.088Z,58.45
2022-10-04T00:54:24.043Z,58.51
2022-10-04T00:56:53.123Z,58.37
2022-10-04T00:59:28.995Z,58.31
2022-10-04T01:01:59.334Z,58.40
2022-10-04T01:04:34.729Z,58.37
2022-10-04T01:07:03.039Z,58.27
2022-10-04T01:09:32.361Z,58.31
2022-10-04T01:12:02.970Z,58.24
2022-10-04T01:14:33.457Z,58.47
2022-10-04T01:17:00.899Z,58.32
2022-10-04T01:19:31.100Z,58.25
2022-10-04T01:21:59.480Z,58.27
2022-10-04T01:24:28.212Z,58.34
2022-10-04T01:26:55.689Z,58.43
2022-10-04T01:29:26.024Z,58.17
2022-10-04T01:31:54.426Z,58.43
2022-10-04T01:34:22.678Z,58.27
2022-10-04T01:36:52.406Z,58.31
2022-10-04T01:39:21.171Z,58.70
2022-10-04T01:41:53.884Z,58.16
2022-10-04T01:44:25.675Z,58.06
2022-10-04T01:46:53.562Z,58.14
2022-10-04T01:49:21.999Z,58.34
2022-10-04T01:51:55.202Z,58.16
2022-10-04T01:54:24.895Z,58.05
2022-10-04T01:56:57.303Z,58.14
2022-10-04T01:59:26.597Z,58.08
2022-10-04T02:01:56.652Z,58.14
2022-10-04T02:04:27.185Z,58.02
2022-10-04T02:06:56.446Z,58.36
2022-10-04T02:09:25.001Z,58.05
2022-10-04T02:11:53.980Z,58.32
2022-10-04T02:14:22.566Z,58.06
2022-10-04T02:16:52.116Z,58.08
2022-10-04T02:19:19.875Z,58.16
2022-10-04T02:21:47.560Z,58.18
2022-10-04T02:24:16.021Z,57.96
2022-10-04T02:26:43.497Z,58.10
2022-10-04T02:29:12.283Z,58.20
2022-10-04T02:31:57.447Z,58.04
2022-10-04T02:34:24.862Z,58.30
2022-10-04T02:36:52.462Z,58.05
2022-10-04T02:39:22.879Z,58.22
2022-10-04T02:41:51.817Z,58.05
2022-10-04T02:44:21.690Z,58.09
2022-10-04T02:46:51.317Z,58.22
2022-10-04T02:49:22.032Z,58.14
2022-10-04T02:51:50.953Z,58.12
2022-10-04T02:54:21.607Z,58.03
2022-10-04T02:56:52.390Z,57.94
2022-10-04T02:59:21.203Z,58.13
2022-10-04T03:01:51.436Z,58.24
2022-10-04T03:04:21.003Z,58.44
2022-10-04T03:06:48.828Z,58.22
2022-10-04T03:09:16.471Z,58.21
2022-10-04T03:11:44.165Z,58.06
2022-10-04T03:14:14.724Z,58.28
2022-10-04T03:16:44.389Z,58.18
2022-10-04T03:19:11.859Z,58.38
2022-10-04T03:21:39.929Z,58.39
2022-10-04T03:24:07.486Z,58.24
2022-10-04T03:26:37.675Z,58.06
2022-10-04T03:29:07.280Z,58.07
2022-10-04T03:31:34.724Z,58.26
2022-10-04T03:34:03.497Z,58.36
2022-10-04T03:36:30.950Z,58.19
2022-10-04T03:38:58.379Z,58.30
2022-10-04T03:41:26.198Z,58.12
2022-10-04T03:43:54.575Z,58.18
2022-10-04T03:46:23.091Z,58.20
2022-10-04T03:48:52.048Z,58.36
2022-10-04T03:51:24.000Z,58.29
2022-10-04T03:53:52.493Z,58.34
2022-10-04T03:56:21.463Z,58.29
2022-10-04T03:58:48.921Z,58.31
2022-10-04T04:01:21.494Z,58.18
2022-10-04T04:03:56.072Z,58.17
2022-10-04T04:06:24.836Z,58.37
2022-10-04T04:08:53.739Z,58.30
2022-10-04T04:11:23.433Z,58.13
2022-10-04T04:13:52.771Z,57.97
2022-10-04T04:16:20.518Z,58.02
2022-10-04T04:18:47.948Z,58.18
2022-10-04T04:21:16.135Z,58.38
2022-10-04T04:23:48.513Z,58.50
2022-10-04T04:26:19.649Z,58.60
2022-10-04T04:28:48.972Z,58.42
2022-10-04T04:31:19.410Z,58.28
2022-10-04T04:33:48.791Z,58.38
2022-10-04T04:36:17.014Z,58.33
2022-10-04T04:38:59.727Z,58.20
2022-10-04T04:41:27.437Z,58.62
2022-10-04T04:43:54.857Z,58.56
2022-10-04T04:46:27.537Z,58.25
2022-10-04T04:49:01.140Z,58.51
2022-10-04T04:51:28.603Z,58.42
2022-10-04T04:53:57.340Z,58.50
2022-10-04T04:56:26.552Z,58.33
2022-10-04T04:58:54.407Z,58.53
2022-10-04T05:01:24.390Z,58.72
2022-10-04T05:04:02.099Z,58.62
2022-10-04T05:06:34.440Z,58.43
2022-10-04T05:09:03.187Z,58.68
2022-10-04T05:11:31.861Z,58.47
2022-10-04T05:14:00.664Z,58.33
2022-10-04T05:16:29.240Z,58.41
2022-10-04T05:18:56.798Z,58.25
2022-10-04T05:21:26.228Z,58.50
2022-10-04T05:23:53.644Z,58.56
2022-10-04T05:26:31.236Z,58.50
2022-10-04T05:29:00.782Z,58.41
2022-10-04T05:31:36.623Z,58.83
2022-10-04T05:34:04.915Z,58.41
2022-10-04T05:37:01.880Z,58.47
2022-10-04T05:39:30.385Z,58.38
2022-10-04T05:42:02.511Z,58.42
2022-10-04T05:44:30.571Z,58.35
2022-10-04T05:46:58.403Z,58.38
2022-10-04T05:49:26.401Z,58.43
2022-10-04T05:51:55.031Z,58.34
2022-10-04T05:54:23.388Z,58.44
2022-10-04T05:57:08.489Z,58.46
2022-10-04T05:59:52.052Z,58.35
2022-10-04T06:02:25.181Z,58.61
2022-10-04T06:04:59.912Z,58.46
2022-10-04T06:07:30.981Z,58.38
2022-10-04T06:10:20.739Z,58.36
2022-10-04T06:12:53.156Z,58.68
2022-10-04T06:15:27.957Z,58.80
2022-10-04T06:18:05.986Z,58.79
2022-10-04T06:21:03.087Z,58.70
2022-10-04T06:23:30.503Z,58.62
2022-10-04T06:25:59.404Z,58.76
2022-10-04T06:28:30.601Z,58.86
2022-10-04T06:31:10.957Z,58.72
2022-10-04T06:33:50.420Z,59.00
2022-10-04T06:36:30.766Z,58.97
2022-10-04T06:39:19.229Z,58.82
2022-10-04T06:41:56.214Z,58.66
2022-10-04T06:44:32.241Z,58.58
2022-10-04T06:47:04.724Z,58.73
2022-10-04T06:49:34.437Z,58.77
2022-10-04T06:52:30.650Z,58.85
2022-10-04T06:55:21.877Z,58.64
2022-10-04T06:58:09.869Z,58.93
2022-10-04T07:00:41.105Z,58.77
2022-10-04T07:03:12.269Z,59.03
2022-10-04T07:05:41.024Z,59.21
2022-10-04T07:08:30.922Z,59.15
2022-10-04T07:11:00.520Z,59.07
2022-10-04T07:13:40.867Z,59.22
2022-10-04T07:16:13.347Z,59.36
2022-10-04T07:18:45.117Z,59.35
2022-10-04T07:21:13.825Z,59.21
2022-10-04T07:23:45.747Z,59.41
2022-10-04T07:26:19.342Z,60.04
2022-10-04T07:29:04.592Z,60.02
2022-10-04T07:31:35.218Z,60.35
2022-10-04T07:34:03.387Z,60.80
2022-10-04T07:36:32.976Z,60.79
2022-10-04T07:39:01.970Z,60.57
2022-10-04T07:41:30.926Z,60.68
2022-10-04T07:43:59.390Z,60.64
2022-10-04T07:46:38.540Z,60.44
2022-10-04T07:49:05.924Z,60.63
2022-10-04T07:51:35.206Z,60.75
2022-10-04T07:54:03.381Z,60.73
2022-10-04T07:56:33.909Z,60.70
2022-10-04T07:59:08.430Z,60.89
2022-10-04T08:01:39.299Z,60.78
2022-10-04T08:04:15.268Z,60.29
2022-10-04T08:06:56.296Z,60.70
2022-10-04T08:09:34.875Z,60.71
2022-10-04T08:12:07.035Z,60.79
2022-10-04T08:14:40.918Z,60.69
2022-10-04T08:17:15.755Z,60.80
2022-10-04T08:19:48.412Z,60.84
2022-10-04T08:22:22.135Z,60.79
2022-10-04T08:24:54.383Z,61.00
2022-10-04T08:27:36.731Z,60.62
2022-10-04T08:30:11.176Z,60.55
2022-10-04T08:32:52.882Z,60.63
2022-10-04T08:35:37.464Z,60.35
2022-10-04T08:38:21.128Z,60.42
2022-10-04T08:41:19.005Z,60.49
2022-10-04T08:44:23.097Z,60.22
2022-10-04T08:47:13.931Z,60.17
2022-10-04T08:50:04.099Z,60.64
2022-10-04T08:52:42.062Z,60.28
2022-10-04T08:55:46.963Z,60.15
2022-10-04T08:58:23.402Z,60.09
2022-10-04T09:00:58.472Z,60.14
2022-10-04T09:03:49.876Z,59.93
2022-10-04T09:06:38.770Z,59.82
2022-10-04T09:10:03.194Z,59.42
2022-10-04T09:12:47.118Z,59.64
2022-10-04T09:15:35.477Z,59.66
2022-10-04T09:18:05.316Z,59.91
2022-10-04T09:20:43.144Z,59.66
2022-10-04T09:23:37.239Z,59.87
2022-10-04T09:26:11.185Z,59.59
2022-10-04T09:29:04.750Z,59.62
2022-10-04T09:31:47.749Z,59.78
2022-10-04T09:34:23.838Z,59.75
2022-10-04T09:37:23.080Z,59.53
2022-10-04T09:40:15.860Z,59.58
2022-10-04T09:43:14.164Z,59.65
2022-10-04T09:45:50.865Z,59.40
2022-10-04T09:48:26.239Z,58.96
2022-10-04T09:51:16.825Z,58.55
2022-10-04T09:53:54.507Z,58.54
2022-10-04T09:56:34.137Z,58.85
2022-10-04T09:59:23.434Z,58.76
2022-10-04T10:04:26.913Z,58.73
2022-10-04T10:07:15.036Z,58.10
2022-10-04T10:10:03.066Z,58.18
2022-10-04T10:12:58.627Z,58.04
2022-10-04T10:15:28.724Z,57.94
2022-10-04T10:17:56.587Z,57.85
2022-10-04T10:20:35.496Z,57.63
2022-10-04T10:23:21.723Z,57.21
2022-10-04T10:25:59.028Z,56.95
2022-10-04T10:28:40.639Z,57.20
2022-10-04T10:31:21.504Z,57.28
2022-10-04T10:34:14.965Z,56.65
2022-10-04T10:36:50.169Z,56.79
2022-10-04T10:39:42.450Z,56.96
2022-10-04T10:42:39.038Z,56.46
2022-10-04T10:45:16.468Z,56.51
2022-10-04T10:47:46.330Z,56.62
2022-10-04T10:50:25.500Z,56.42
2022-10-04T10:53:17.473Z,56.46
2022-10-04T10:56:17.685Z,56.27
2022-10-04T10:58:55.952Z,56.41
2022-10-04T11:01:47.216Z,56.43
2022-10-04T11:04:36.249Z,56.20
2022-10-04T11:07:13.993Z,56.35
2022-10-04T11:09:52.607Z,56.25
2022-10-04T11:12:34.677Z,56.04
2022-10-04T11:15:38.881Z,56.33
2022-10-04T11:18:45.053Z,56.44
2022-10-04T11:21:45.941Z,56.18
2022-10-04T11:24:32.331Z,56.26
2022-10-04T11:27:17.189Z,56.39
2022-10-04T11:29:55.139Z,55.85
2022-10-04T11:32:41.288Z,56.32
2022-10-04T11:35:50.228Z,56.55
2022-10-04T11:38:30.976Z,56.81
2022-10-04T11:41:10.814Z,56.64
2022-10-04T11:43:48.191Z,56.64
2022-10-04T11:46:35.967Z,57.00
2022-10-04T11:49:11.133Z,56.85
2022-10-04T11:52:04.423Z,57.19
2022-10-04T11:54:51.969Z,57.43
2022-10-04T11:57:27.635Z,57.05
2022-10-04T12:00:00.772Z,57.31
2022-10-04T12:02:56.493Z,57.19
2022-10-04T12:05:53.793Z,57.36
2022-10-04T12:08:25.792Z,57.74
2022-10-04T12:11:25.186Z,57.73
2022-10-04T12:13:59.624Z,57.40
2022-10-04T12:16:38.230Z,57.27
2022-10-04T12:19:27.784Z,57.20
2022-10-04T12:22:15.682Z,57.25
2022-10-04T12:25:07.939Z,57.45
2022-10-04T12:28:11.479Z,57.41
2022-10-04T12:30:44.495Z,57.38
2022-10-04T12:33:13.983Z,57.21
2022-10-04T12:35:57.317Z,57.26
2022-10-04T12:38:55.155Z,57.39
2022-10-04T12:41:31.135Z,57.62
2022-10-04T12:44:07.757Z,57.64
2022-10-04T12:46:39.330Z,57.93
2022-10-04T12:49:21.610Z,57.83
2022-10-04T12:51:55.404Z,57.44
2022-10-04T12:54:33.381Z,56.71
2022-10-04T12:57:07.256Z,56.85
2022-10-04T12:59:48.379Z,56.79
2022-10-04T13:02:23.353Z,56.93
2022-10-04T13:04:52.437Z,57.09
2022-10-04T13:07:31.702Z,57.33
2022-10-04T13:10:24.031Z,57.09
2022-10-04T13:13:11.068Z,57.06
2022-10-04T13:18:30.452Z,56.97
2022-10-04T13:21:01.120Z,56.92
2022-10-04T13:23:37.620Z,56.96
2022-10-04T13:26:16.357Z,56.91
2022-10-04T13:28:47.860Z,57.09
2022-10-04T13:31:21.748Z,57.29
2022-10-04T13:33:52.076Z,57.15
2022-10-04T13:36:21.038Z,57.52
2022-10-04T13:39:16.995Z,57.10
2022-10-04T13:41:57.218Z,56.35
2022-10-04T13:44:51.650Z,56.09
2022-10-04T13:47:34.626Z,55.26
2022-10-04T13:50:09.971Z,55.71
2022-10-04T13:52:59.996Z,55.37
2022-10-04T13:55:46.860Z,54.61
2022-10-04T13:58:22.450Z,54.81
2022-10-04T14:01:05.900Z,54.35
2022-10-04T14:03:42.345Z,54.63
2022-10-04T14:06:27.892Z,54.90
2022-10-04T14:09:23.181Z,54.89
2022-10-04T14:12:09.885Z,54.92
2022-10-04T14:15:18.768Z,55.03
2022-10-04T14:18:27.536Z,55.16
2022-10-04T14:21:39.826Z,55.11
2022-10-04T14:24:45.815Z,55.46
2022-10-04T14:27:37.297Z,55.36
2022-10-04T14:30:23.193Z,55.50
2022-10-04T14:33:32.578Z,55.43
2022-10-04T14:36:29.573Z,55.22
2022-10-04T14:39:18.868Z,55.54
2022-10-04T14:42:11.601Z,55.27
2022-10-04T14:45:07.882Z,55.34
2022-10-04T14:48:07.137Z,55.32
2022-10-04T14:50:41.192Z,55.23
2022-10-04T14:53:14.932Z,55.07
2022-10-04T14:56:09.137Z,55.13
2022-10-04T14:58:41.013Z,55.13
2022-10-04T15:01:22.609Z,55.00
2022-10-04T15:04:01.297Z,54.82
2022-10-04T15:06:36.933Z,55.03
2022-10-04T15:09:20.929Z,55.02
2022-10-04T15:12:21.458Z,54.62
2022-10-04T15:14:42.689Z,54.91
2022-10-04T15:17:12.514Z,55.19
2022-10-04T15:20:00.982Z,55.11
2022-10-04T15:22:29.575Z,55.30
2022-10-04T15:24:57.089Z,55.06
2022-10-04T15:27:47.164Z,55.17
2022-10-04T15:30:19.312Z,55.36
2022-10-04T15:32:51.034Z,55.52
2022-10-04T15:35:22.970Z,55.31
2022-10-04T15:37:53.485Z,55.40
2022-10-04T15:40:30.515Z,55.46
2022-10-04T15:43:07.313Z,55.58
2022-10-04T15:46:15.290Z,55.58
2022-10-04T15:48:57.630Z,55.51
2022-10-04T15:51:42.283Z,55.55
2022-10-04T15:54:15.344Z,55.85
2022-10-04T15:56:46.333Z,55.85
2022-10-04T15:59:41.293Z,56.03
2022-10-04T16:02:22.365Z,55.98
2022-10-04T16:04:58.528Z,56.04
2022-10-04T16:07:39.727Z,55.90
2022-10-04T16:10:18.939Z,56.06
2022-10-04T16:13:26.162Z,56.23
2022-10-04T16:16:26.344Z,56.33
2022-10-04T16:18:55.605Z,56.58
2022-10-04T16:21:29.920Z,56.63
2022-10-04T16:24:30.503Z,56.60
2022-10-04T16:27:13.881Z,56.56
2022-10-04T16:29:44.906Z,56.79
2022-10-04T16:32:13.312Z,57.01
2022-10-04T16:34:48.833Z,57.03
2022-10-04T16:37:22.182Z,57.00
2022-10-04T16:40:00.692Z,57.19
2022-10-04T16:42:29.858Z,57.10
2022-10-04T16:44:59.692Z,57.35
2022-10-04T16:47:29.278Z,57.24
2022-10-04T16:49:57.837Z,57.44
2022-10-04T16:52:49.526Z,57.54
2022-10-04T16:55:22.500Z,57.44
2022-10-04T16:58:22.476Z,57.51
2022-10-04T17:00:49.988Z,57.80
2022-10-04T17:03:20.333Z,57.67
2022-10-04T17:06:02.911Z,57.73
2022-10-04T17:08:49.763Z,57.64
2022-10-04T17:11:44.683Z,57.71
2022-10-04T17:14:32.186Z,57.69
2022-10-04T17:17:01.490Z,57.76
2022-10-04T17:19:32.703Z,58.17
2022-10-04T17:22:06.979Z,58.13
2022-10-04T17:24:43.140Z,58.17
2022-10-04T17:27:26.035Z,58.09
2022-10-04T17:30:04.384Z,57.82
2022-10-04T17:32:36.278Z,57.97
2022-10-04T17:35:13.179Z,58.12
2022-10-04T17:37:44.540Z,58.04
2022-10-04T17:40:28.525Z,58.35
2022-10-04T17:43:00.013Z,58.20
2022-10-04T17:45:45.571Z,58.38
2022-10-04T17:48:32.623Z,58.20
2022-10-04T17:51:19.492Z,58.26
2022-10-04T17:54:06.152Z,58.49
2022-10-04T17:56:37.690Z,58.51
2022-10-04T17:59:08.526Z,58.41
2022-10-04T18:01:37.118Z,58.26
2022-10-04T18:04:09.291Z,58.37
2022-10-04T18:06:38.706Z,58.37
2022-10-04T18:09:09.888Z,58.68
2022-10-04T18:11:44.041Z,58.59
2022-10-04T18:14:13.186Z,58.36
2022-10-04T18:16:47.464Z,58.57
2022-10-04T18:19:37.861Z,58.42
2022-10-04T18:22:10.947Z,58.52
2022-10-04T18:24:38.391Z,58.44
2022-10-04T18:27:18.347Z,58.38
2022-10-04T18:30:00.399Z,58.46
2022-10-04T18:32:35.604Z,58.43
2022-10-04T18:35:08.266Z,58.49
2022-10-04T18:37:37.129Z,58.58
2022-10-04T18:40:11.890Z,58.51
2022-10-04T18:42:43.004Z,58.82
2022-10-04T18:45:20.158Z,58.77
2022-10-04T18:47:50.648Z,58.82
2022-10-04T18:50:23.917Z,58.81
2022-10-04T18:53:08.172Z,59.03
2022-10-04T18:55:40.429Z,58.75
2022-10-04T18:58:49.276Z,58.90
2022-10-04T19:01:45.558Z,58.90
2022-10-04T19:04:15.249Z,58.77
2022-10-04T19:06:42.833Z,58.65
2022-10-04T19:09:14.160Z,58.94
2022-10-04T19:11:44.090Z,58.63
2022-10-04T19:14:20.767Z,58.57
2022-10-04T19:16:51.085Z,58.72
2022-10-04T19:19:31.992Z,58.87
2022-10-04T19:22:02.059Z,58.79
2022-10-04T19:24:45.283Z,58.65
2022-10-04T19:27:18.186Z,58.97
2022-10-04T19:29:54.838Z,58.70
2022-10-04T19:32:27.333Z,58.90
2022-10-04T19:34:59.252Z,58.61
2022-10-04T19:37:27.540Z,58.83
2022-10-04T19:39:59.917Z,58.74
2022-10-04T19:42:29.366Z,58.85
2022-10-04T19:45:06.006Z,58.94
2022-10-04T19:47:41.324Z,58.66
2022-10-04T19:50:17.647Z,58.53
2022-10-04T19:52:51.424Z,59.01
2022-10-04T19:55:22.912Z,58.71
2022-10-04T19:57:51.884Z,58.75
2022-10-04T20:00:21.916Z,58.60
2022-10-04T20:02:49.949Z,58.83
2022-10-04T20:05:20.031Z,58.69
2022-10-04T20:07:50.814Z,58.84
2022-10-04T20:10:24.237Z,58.82
2022-10-04T20:13:23.369Z,58.59
2022-10-04T20:15:53.392Z,58.85
2022-10-04T20:19:04.993Z,58.66
2022-10-04T20:21:32.768Z,58.60
2022-10-04T20:24:01.399Z,59.07
2022-10-04T20:26:53.705Z,59.03
2022-10-04T20:30:07.464Z,58.99
2022-10-04T20:32:58.376Z,59.06
2022-10-04T20:36:09.516Z,58.97
2022-10-04T20:39:05.881Z,58.95
2022-10-04T20:42:22.293Z,58.93
2022-10-04T20:44:54.151Z,58.84
2022-10-04T20:47:39.184Z,58.82
2022-10-04T20:50:36.318Z,58.83
2022-10-04T20:53:05.975Z,58.96
2022-10-04T20:55:34.866Z,58.90
2022-10-04T20:58:03.109Z,58.78
2022-10-04T21:00:34.258Z,58.99
2022-10-04T21:03:09.589Z,59.18
2022-10-04T21:05:39.473Z,59.13
2022-10-04T21:08:31.136Z,59.00
2022-10-04T21:11:22.410Z,59.10
2022-10-04T21:13:54.804Z,58.78
2022-10-04T21:16:41.975Z,58.87
2022-10-04T21:19:50.133Z,58.94
2022-10-04T21:22:40.960Z,58.86
2022-10-04T21:25:31.832Z,58.82
2022-10-04T21:28:33.596Z,58.75
2022-10-04T21:31:01.378Z,58.52
2022-10-04T21:33:28.848Z,58.86
2022-10-04T21:35:56.269Z,58.48
2022-10-04T21:38:25.034Z,58.68
2022-10-04T21:40:52.734Z,58.43
2022-10-04T21:43:20.164Z,58.84
2022-10-04T21:45:47.610Z,58.37
2022-10-04T21:48:15.103Z,58.47
2022-10-04T21:50:43.417Z,58.48
2022-10-04T21:53:11.000Z,58.39
2022-10-04T21:55:39.772Z,58.46
2022-10-04T21:58:07.223Z,58.38
2022-10-04T22:00:34.646Z,58.47
2022-10-04T22:03:02.065Z,58.31
2022-10-04T22:05:29.516Z,58.50
2022-10-04T22:07:58.097Z,58.54
2022-10-04T22:10:25.565Z,58.61
2022-10-04T22:12:56.755Z,58.62
2022-10-04T22:15:25.756Z,58.39
2022-10-04T22:17:53.428Z,58.39
2022-10-04T22:20:20.848Z,58.50
2022-10-04T22:22:48.291Z,58.30
2022-10-04T22:25:16.670Z,58.44
2022-10-04T22:27:44.107Z,58.53
2022-10-04T22:30:22.493Z,58.46
2022-10-04T22:32:49.936Z,58.62
2022-10-04T22:35:18.638Z,58.30
2022-10-04T22:37:46.119Z,58.57
2022-10-04T22:40:16.020Z,58.32
2022-10-04T22:42:43.438Z,58.57
2022-10-04T22:45:17.013Z,58.38
2022-10-04T22:47:45.781Z,58.41
2022-10-04T22:50:18.264Z,58.46
2022-10-04T22:52:45.697Z,58.25
2022-10-04T22:55:14.346Z,58.50
2022-10-04T22:57:41.806Z,58.43
2022-10-04T23:00:11.411Z,58.54
2022-10-04T23:02:38.911Z,58.53
2022-10-04T23:05:13.124Z,58.20
2022-10-04T23:07:40.687Z,58.48
2022-10-04T23:10:08.813Z,58.59
2022-10-04T23:12:36.303Z,58.19
2022-10-04T23:15:06.183Z,58.40
2022-10-04T23:17:35.259Z,58.22
2022-10-04T23:20:06.887Z,58.50
2022-10-04T23:22:35.697Z,58.43
2022-10-04T23:25:03.167Z,58.25
2022-10-04T23:27:30.732Z,58.43
2022-10-04T23:29:59.436Z,58.10
2022-10-04T23:32:26.889Z,58.45
2022-10-04T23:34:56.974Z,58.39
2022-10-04T23:37:26.649Z,58.50
2022-10-04T23:39:55.413Z,58.43
2022-10-04T23:42:28.703Z,58.23
2022-10-04T23:44:56.463Z,58.25
2022-10-04T23:47:24.272Z,58.36
2022-10-04T23:49:52.908Z,58.23
2022-10-04T23:52:21.415Z,58.50
2022-10-04T23:54:49.148Z,58.44
2022-10-04T23:57:20.851Z,58.30
2022-10-04T23:59:48.287Z,58.27
